createdAt,value
2022-09-20T00:01:42.463Z,75.35
2022-09-20T00:04:11.095Z,75.44
2022-09-20T00:06:40.960Z,75.28
2022-09-20T00:09:09.307Z,75.37
2022-09-20T00:11:38.447Z,75.63
2022-09-20T00:14:09.664Z,74.95
2022-09-20T00:16:41.485Z,75.19
2022-09-20T00:19:10.848Z,75.32
2022-09-20T00:21:40.773Z,75.13
2022-09-20T00:24:09.208Z,75.34
2022-09-20T00:26:38.192Z,75.07
2022-09-20T00:29:06.616Z,74.65
2022-09-20T00:31:35.746Z,74.92
2022-09-20T00:34:21.846Z,74.85
2022-09-20T00:36:51.580Z,75.23
2022-09-20T00:39:19.956Z,74.99
2022-09-20T00:41:48.544Z,74.69
2022-09-20T00:44:42.835Z,75.07
2022-09-20T00:47:17.462Z,74.70
2022-09-20T00:49:46.038Z,74.37
2022-09-20T00:52:17.175Z,74.75
2022-09-20T00:54:45.731Z,74.67
2022-09-20T00:57:14.147Z,74.57
2022-09-20T00:59:47.547Z,75.00
2022-09-20T01:02:19.393Z,73.96
2022-09-20T01:04:50.143Z,74.14
2022-09-20T01:07:23.620Z,74.17
2022-09-20T01:09:52.895Z,74.23
2022-09-20T01:12:24.919Z,74.64
2022-09-20T01:14:55.062Z,74.35
2022-09-20T01:17:26.706Z,73.77
2022-09-20T01:20:09.650Z,74.05
2022-09-20T01:22:49.816Z,74.10
2022-09-20T01:25:21.700Z,73.77
2022-09-20T01:27:53.693Z,73.88
2022-09-20T01:30:25.579Z,74.50
2022-09-20T01:33:04.067Z,73.67
2022-09-20T01:35:35.838Z,74.03
2022-09-20T01:38:17.850Z,74.53
2022-09-20T01:40:55.032Z,74.36
2022-09-20T01:43:33.072Z,74.23
2022-09-20T01:46:12.483Z,73.67
2022-09-20T01:48:43.570Z,74.47
2022-09-20T01:51:50.556Z,74.62
2022-09-20T01:54:48.880Z,74.71
2022-09-20T01:57:58.657Z,73.93
2022-09-20T02:00:31.173Z,74.48
2022-09-20T02:03:38.476Z,74.69
2022-09-20T02:06:20.464Z,74.31
2022-09-20T02:09:21.650Z,74.38
2022-09-20T02:12:10.789Z,74.56
2022-09-20T02:14:50.723Z,74.57
2022-09-20T02:17:29.086Z,74.33
2022-09-20T02:20:17.338Z,74.05
2022-09-20T02:23:13.519Z,73.97
2022-09-20T02:25:54.644Z,74.30
2022-09-20T02:28:40.578Z,74.39
2022-09-20T02:31:18.739Z,74.22
2022-09-20T02:34:29.361Z,74.05
2022-09-20T02:37:16.326Z,73.81
2022-09-20T02:39:57.416Z,74.18
2022-09-20T02:42:36.353Z,74.21
2022-09-20T02:45:11.704Z,73.73
2022-09-20T02:47:41.570Z,74.07
2022-09-20T02:50:24.548Z,73.76
2022-09-20T02:53:04.712Z,74.02
2022-09-20T02:55:42.038Z,74.66
2022-09-20T02:58:33.488Z,73.77
2022-09-20T03:01:11.129Z,73.77
2022-09-20T03:03:51.599Z,74.35
2022-09-20T03:06:31.675Z,73.55
2022-09-20T03:09:07.960Z,73.38
2022-09-20T03:11:45.346Z,73.53
2022-09-20T03:14:23.145Z,73.47
2022-09-20T03:17:11.467Z,73.27
2022-09-20T03:19:57.806Z,72.83
2022-09-20T03:22:39.419Z,73.29
2022-09-20T03:25:40.262Z,73.33
2022-09-20T03:28:24.396Z,73.36
2022-09-20T03:31:05.213Z,73.59
2022-09-20T03:33:47.038Z,73.38
2022-09-20T03:36:35.965Z,73.50
2022-09-20T03:39:10.971Z,73.51
2022-09-20T03:41:58.378Z,73.12
2022-09-20T03:44:55.352Z,73.22
2022-09-20T03:47:42.976Z,73.65
2022-09-20T03:50:44.057Z,73.12
2022-09-20T03:53:41.011Z,73.20
2022-09-20T03:56:36.003Z,73.42
2022-09-20T03:59:15.637Z,72.41
2022-09-20T04:02:11.175Z,72.81
2022-09-20T04:04:49.491Z,73.21
2022-09-20T04:07:24.646Z,72.76
2022-09-20T04:10:20.204Z,72.79
2022-09-20T04:13:04.257Z,72.56
2022-09-20T04:15:43.038Z,73.28
2022-09-20T04:18:23.672Z,72.68
2022-09-20T04:20:58.748Z,72.44
2022-09-20T04:23:37.524Z,72.25
2022-09-20T04:26:06.387Z,72.70
2022-09-20T04:28:42.649Z,73.00
2022-09-20T04:31:25.652Z,72.45
2022-09-20T04:33:58.283Z,72.95
2022-09-20T04:36:37.033Z,73.07
2022-09-20T04:39:18.863Z,72.36
2022-09-20T04:42:23.440Z,72.26
2022-09-20T04:45:37.387Z,72.20
2022-09-20T04:48:52.964Z,73.10
2022-09-20T04:52:00.846Z,73.00
2022-09-20T04:55:02.515Z,72.86
2022-09-20T04:58:04.783Z,72.70
2022-09-20T05:00:52.442Z,72.40
2022-09-20T05:03:52.436Z,72.78
2022-09-20T05:06:38.448Z,72.62
2022-09-20T05:09:33.727Z,72.84
2022-09-20T05:12:53.576Z,73.77
2022-09-20T05:15:36.571Z,73.64
2022-09-20T05:18:35.238Z,72.80
2022-09-20T05:21:16.905Z,72.44
2022-09-20T05:24:01.737Z,73.36
2022-09-20T05:26:42.844Z,72.76
2022-09-20T05:29:19.830Z,72.65
2022-09-20T05:31:54.231Z,72.25
2022-09-20T05:34:32.138Z,71.97
2022-09-20T05:37:12.644Z,71.85
2022-09-20T05:39:48.189Z,71.76
2022-09-20T05:42:21.057Z,70.68
2022-09-20T05:45:03.348Z,71.22
2022-09-20T05:47:41.700Z,71.38
2022-09-20T05:50:31.355Z,70.87
2022-09-20T05:53:11.757Z,71.42
2022-09-20T05:56:01.260Z,71.37
2022-09-20T05:58:50.123Z,70.54
2022-09-20T06:01:24.580Z,71.37
2022-09-20T06:04:01.443Z,71.15
2022-09-20T06:06:38.143Z,70.78
2022-09-20T06:09:34.368Z,70.15
2022-09-20T06:12:29.899Z,70.40
2022-09-20T06:15:04.982Z,70.28
2022-09-20T06:17:39.633Z,70.86
2022-09-20T06:20:19.771Z,70.51
2022-09-20T06:22:51.986Z,70.94
2022-09-20T06:25:26.144Z,70.70
2022-09-20T06:27:57.408Z,71.40
2022-09-20T06:30:30.258Z,70.58
2022-09-20T06:33:00.998Z,70.91
2022-09-20T06:35:41.448Z,69.73
2022-09-20T06:38:49.574Z,69.75
2022-09-20T06:41:29.940Z,68.89
2022-09-20T06:44:00.947Z,67.42
2022-09-20T06:46:31.540Z,67.32
2022-09-20T06:49:00.251Z,67.20
2022-09-20T06:51:30.066Z,65.90
2022-09-20T06:53:58.648Z,65.10
2022-09-20T06:59:17.371Z,64.99
2022-09-20T07:01:45.942Z,64.84
2022-09-20T07:04:14.370Z,65.31
2022-09-20T07:06:42.741Z,64.87
2022-09-20T07:09:29.312Z,63.89
2022-09-20T07:11:59.946Z,63.45
2022-09-20T07:14:28.968Z,64.23
2022-09-20T07:16:57.432Z,63.95
2022-09-20T07:19:25.792Z,62.50
2022-09-20T07:21:54.383Z,61.84
2022-09-20T07:24:22.745Z,60.77
2022-09-20T07:27:00.589Z,60.52
2022-09-20T07:29:30.200Z,61.27
2022-09-20T07:31:58.967Z,60.52
2022-09-20T07:34:27.780Z,60.56
2022-09-20T07:36:59.811Z,60.00
2022-09-20T07:39:28.559Z,59.51
2022-09-20T07:41:58.380Z,59.64
2022-09-20T07:44:27.993Z,59.66
2022-09-20T07:46:59.360Z,59.58
2022-09-20T07:49:30.062Z,59.83
2022-09-20T07:51:59.096Z,60.16
2022-09-20T07:54:28.373Z,58.74
2022-09-20T07:56:58.194Z,59.83
2022-09-20T07:59:26.709Z,59.47
2022-09-20T08:01:55.131Z,58.97
2022-09-20T08:04:23.545Z,59.54
2022-09-20T08:06:51.932Z,57.65
2022-09-20T08:09:20.564Z,55.06
2022-09-20T08:11:49.578Z,52.97
2022-09-20T08:14:20.921Z,50.39
2022-09-20T08:16:50.619Z,50.69
2022-09-20T08:19:21.010Z,50.48
2022-09-20T08:21:50.620Z,51.05
2022-09-20T08:24:19.133Z,50.59
2022-09-20T08:26:48.454Z,49.56
2022-09-20T08:29:16.825Z,50.32
2022-09-20T08:31:47.346Z,48.91
2022-09-20T08:34:18.539Z,50.19
2022-09-20T08:36:50.273Z,48.53
2022-09-20T08:42:16.230Z,48.65
2022-09-20T08:45:00.447Z,49.36
2022-09-20T08:47:34.508Z,47.68
2022-09-20T08:50:17.724Z,47.44
2022-09-20T08:52:48.725Z,47.82
2022-09-20T08:55:19.002Z,47.93
2022-09-20T08:57:50.453Z,48.23
2022-09-20T09:00:21.007Z,48.51
2022-09-20T09:02:53.275Z,49.26
2022-09-20T09:05:32.787Z,49.11
2022-09-20T09:08:04.712Z,49.90
2022-09-20T09:10:42.596Z,50.89
2022-09-20T09:13:23.592Z,49.99
2022-09-20T09:15:57.396Z,51.02
2022-09-20T09:18:35.333Z,51.31
2022-09-20T09:21:05.619Z,51.93
2022-09-20T09:23:42.585Z,51.97
2022-09-20T09:26:18.939Z,52.67
2022-09-20T09:28:48.524Z,52.58
2022-09-20T09:31:26.923Z,52.80
2022-09-20T09:33:56.769Z,53.10
2022-09-20T09:36:26.711Z,53.13
2022-09-20T09:39:17.606Z,53.85
2022-09-20T09:41:46.676Z,53.99
2022-09-20T09:44:24.199Z,54.93
2022-09-20T09:46:54.549Z,55.16
2022-09-20T09:49:25.871Z,55.41
2022-09-20T09:52:08.093Z,56.04
2022-09-20T09:54:39.319Z,56.19
2022-09-20T09:57:32.049Z,55.64
2022-09-20T10:00:16.606Z,56.13
2022-09-20T10:03:21.111Z,56.20
2022-09-20T10:06:08.287Z,55.87
2022-09-20T10:08:45.835Z,54.94
2022-09-20T10:11:30.571Z,54.58
2022-09-20T10:14:11.891Z,53.70
2022-09-20T10:16:59.244Z,52.59
2022-09-20T10:19:38.080Z,52.75
2022-09-20T10:22:19.757Z,53.04
2022-09-20T10:24:57.197Z,53.44
2022-09-20T10:27:39.846Z,53.57
2022-09-20T10:30:14.406Z,53.44
2022-09-20T10:33:01.013Z,52.81
2022-09-20T10:35:38.201Z,52.54
2022-09-20T10:38:19.873Z,52.08
2022-09-20T10:41:35.189Z,51.62
2022-09-20T10:44:11.820Z,51.93
2022-09-20T10:46:54.785Z,52.60
2022-09-20T10:49:34.277Z,52.99
2022-09-20T10:52:31.760Z,53.17
2022-09-20T10:55:20.525Z,53.37
2022-09-20T10:58:06.239Z,53.85
2022-09-20T11:00:46.878Z,54.56
2022-09-20T11:03:28.141Z,54.98
2022-09-20T11:06:09.755Z,55.76
2022-09-20T11:08:41.261Z,55.92
2022-09-20T11:11:17.211Z,57.01
2022-09-20T11:13:56.600Z,58.04
2022-09-20T11:16:30.612Z,55.43
2022-09-20T11:19:02.432Z,55.81
2022-09-20T11:21:36.601Z,55.83
2022-09-20T11:24:12.594Z,55.46
2022-09-20T11:26:47.882Z,55.96
2022-09-20T11:29:26.171Z,56.41
2022-09-20T11:32:01.780Z,55.99
2022-09-20T11:34:33.223Z,55.85
2022-09-20T11:37:03.493Z,54.75
2022-09-20T11:39:40.899Z,54.28
2022-09-20T11:42:15.388Z,52.82
2022-09-20T11:44:44.158Z,53.62
2022-09-20T11:47:36.651Z,52.11
2022-09-20T11:50:48.626Z,49.42
2022-09-20T11:53:28.190Z,48.44
2022-09-20T11:56:02.333Z,47.69
2022-09-20T11:58:33.960Z,48.24
2022-09-20T12:01:02.438Z,48.51
2022-09-20T12:03:36.523Z,49.66
2022-09-20T12:06:07.191Z,49.58
2022-09-20T12:08:40.221Z,49.32
2022-09-20T12:11:12.058Z,49.04
2022-09-20T12:13:44.711Z,50.08
2022-09-20T12:16:17.146Z,49.88
2022-09-20T12:19:03.857Z,51.23
2022-09-20T12:21:32.263Z,51.49
2022-09-20T12:24:19.833Z,51.58
2022-09-20T12:26:49.437Z,52.58
2022-09-20T12:29:51.381Z,53.35
2022-09-20T12:32:46.723Z,54.22
2022-09-20T12:36:00.739Z,54.61
2022-09-20T12:38:33.329Z,54.77
2022-09-20T12:41:04.691Z,54.40
2022-09-20T13:42:30.003Z,53.72
2022-09-20T13:44:59.826Z,53.73
2022-09-20T13:47:31.360Z,54.19
2022-09-20T13:50:03.660Z,53.93
2022-09-20T13:52:33.127Z,54.11
2022-09-20T13:55:01.510Z,54.24
2022-09-20T13:57:33.299Z,53.86
2022-09-20T14:00:02.342Z,54.21
2022-09-20T14:02:40.586Z,54.31
2022-09-20T14:05:18.085Z,54.12
2022-09-20T14:07:48.592Z,54.46
2022-09-20T14:10:37.118Z,54.40
2022-09-20T14:13:09.677Z,54.87
2022-09-20T14:15:42.583Z,55.07
2022-09-20T14:18:16.173Z,54.91
2022-09-20T14:20:45.433Z,54.60
2022-09-20T14:23:24.218Z,54.59
2022-09-20T14:26:09.051Z,54.92
2022-09-20T14:28:38.848Z,54.76
2022-09-20T14:31:12.948Z,54.93
2022-09-20T14:33:45.047Z,54.92
2022-09-20T14:36:16.523Z,55.18
2022-09-20T14:38:46.289Z,54.67
2022-09-20T14:41:15.434Z,54.61
2022-09-20T14:43:45.868Z,54.54
2022-09-20T14:46:17.872Z,54.25
2022-09-20T14:48:46.313Z,54.33
2022-09-20T14:51:25.675Z,54.65
2022-09-20T14:54:15.143Z,54.91
2022-09-20T14:56:51.070Z,55.00
2022-09-20T14:59:26.858Z,55.17
2022-09-20T15:01:59.209Z,55.01
2022-09-20T15:04:29.133Z,55.25
2022-09-20T15:07:01.441Z,55.80
2022-09-20T15:09:30.921Z,55.73
2022-09-20T15:12:04.405Z,55.85
2022-09-20T15:14:37.836Z,56.29
2022-09-20T15:17:07.311Z,56.54
2022-09-20T15:19:35.671Z,56.67
2022-09-20T15:22:04.111Z,56.82
2022-09-20T15:24:32.490Z,56.96
2022-09-20T15:27:00.851Z,56.94
2022-09-20T15:29:29.347Z,57.09
2022-09-20T15:31:59.117Z,57.20
2022-09-20T15:34:27.760Z,57.42
2022-09-20T15:36:56.234Z,57.19
2022-09-20T15:39:24.844Z,57.31
2022-09-20T15:41:53.919Z,57.35
2022-09-20T15:44:22.430Z,57.15
2022-09-20T15:46:52.611Z,57.41
2022-09-20T15:49:22.945Z,57.33
2022-09-20T15:51:52.798Z,58.01
2022-09-20T15:54:21.305Z,57.64
2022-09-20T15:56:53.275Z,57.55
2022-09-20T15:59:23.297Z,58.42
2022-09-20T16:01:51.822Z,58.37
2022-09-20T16:04:22.515Z,58.36
2022-09-20T16:06:51.630Z,58.88
2022-09-20T16:09:21.285Z,58.93
2022-09-20T16:11:50.166Z,59.05
2022-09-20T16:14:18.587Z,58.53
2022-09-20T16:16:47.003Z,59.26
2022-09-20T16:19:17.607Z,59.35
2022-09-20T16:21:53.615Z,59.25
2022-09-20T16:24:26.188Z,59.66
2022-09-20T16:26:54.818Z,59.24
2022-09-20T16:29:25.198Z,59.67
2022-09-20T16:31:55.041Z,59.41
2022-09-20T16:34:28.528Z,59.69
2022-09-20T16:37:00.099Z,59.94
2022-09-20T16:39:29.525Z,59.28
2022-09-20T16:42:01.107Z,59.91
2022-09-20T16:44:29.428Z,59.75
2022-09-20T16:46:57.806Z,59.33
2022-09-20T16:49:28.850Z,59.38
2022-09-20T16:51:58.656Z,59.42
2022-09-20T16:54:31.592Z,59.66
2022-09-20T16:57:00.511Z,59.84
2022-09-20T16:59:28.965Z,59.86
2022-09-20T17:01:57.437Z,59.72
2022-09-20T17:04:25.838Z,59.78
2022-09-20T17:06:54.342Z,60.08
2022-09-20T17:09:24.191Z,59.81
2022-09-20T17:11:52.833Z,60.17
2022-09-20T17:14:22.071Z,59.99
2022-09-20T17:16:50.625Z,60.20
2022-09-20T17:19:20.496Z,60.06
2022-09-20T17:21:51.099Z,60.26
2022-09-20T17:24:21.593Z,60.43
2022-09-20T17:26:52.072Z,60.04
2022-09-20T17:29:21.577Z,60.75
2022-09-20T17:31:55.088Z,60.14
2022-09-20T17:34:25.568Z,60.44
2022-09-20T17:36:55.578Z,59.84
2022-09-20T17:39:24.496Z,61.27
2022-09-20T17:41:54.401Z,60.82
2022-09-20T17:44:22.867Z,60.97
2022-09-20T17:46:54.061Z,60.97
2022-09-20T17:49:24.350Z,60.82
2022-09-20T17:51:54.500Z,60.88
2022-09-20T17:54:24.604Z,61.16
2022-09-20T17:56:56.246Z,60.79
2022-09-20T17:59:25.811Z,60.86
2022-09-20T18:01:55.332Z,61.16
2022-09-20T18:04:24.634Z,60.88
2022-09-20T18:06:54.744Z,61.62
2022-09-20T18:09:25.412Z,61.28
2022-09-20T18:11:56.581Z,61.95
2022-09-20T18:14:27.605Z,61.43
2022-09-20T18:16:58.245Z,61.50
2022-09-20T18:19:32.784Z,62.01
2022-09-20T18:22:02.479Z,61.93
2022-09-20T18:24:31.600Z,62.13
2022-09-20T18:27:01.810Z,62.29
2022-09-20T18:29:36.741Z,62.61
2022-09-20T18:32:05.559Z,62.34
2022-09-20T18:34:34.305Z,62.45
2022-09-20T18:37:03.945Z,62.84
2022-09-20T18:39:35.031Z,63.01
2022-09-20T18:42:07.881Z,62.82
2022-09-20T18:44:36.457Z,62.87
2022-09-20T18:47:06.023Z,62.89
2022-09-20T18:49:34.500Z,63.13
2022-09-20T18:52:04.062Z,62.86
2022-09-20T18:54:33.741Z,63.17
2022-09-20T18:57:02.773Z,63.46
2022-09-20T18:59:32.955Z,63.29
2022-09-20T19:02:13.919Z,63.30
2022-09-20T19:05:17.770Z,63.31
2022-09-20T19:08:00.059Z,63.86
2022-09-20T19:10:40.364Z,64.41
2022-09-20T19:13:27.151Z,64.12
2022-09-20T19:16:16.910Z,64.98
2022-09-20T19:19:13.477Z,64.17
2022-09-20T19:21:47.788Z,64.30
2022-09-20T19:24:31.338Z,63.73
2022-09-20T19:26:59.917Z,63.90
2022-09-20T19:29:29.895Z,64.10
2022-09-20T19:32:01.026Z,64.02
2022-09-20T19:34:30.821Z,63.68
2022-09-20T19:37:09.059Z,64.01
2022-09-20T19:39:55.520Z,63.59
2022-09-20T19:42:37.217Z,63.89
2022-09-20T19:45:16.740Z,64.36
2022-09-20T19:47:55.856Z,64.81
2022-09-20T19:50:33.419Z,64.06
2022-09-20T19:53:04.113Z,63.64
2022-09-20T19:55:33.666Z,63.64
2022-09-20T19:58:03.010Z,64.03
2022-09-20T20:00:32.294Z,64.49
2022-09-20T20:03:02.889Z,64.33
2022-09-20T20:05:32.231Z,64.16
2022-09-20T20:08:15.734Z,63.92
2022-09-20T20:10:55.541Z,63.60
2022-09-20T20:13:52.016Z,64.08
2022-09-20T20:16:28.805Z,64.24
2022-09-20T20:19:12.511Z,63.74
2022-09-20T20:21:51.359Z,64.37
2022-09-20T20:24:29.918Z,65.10
2022-09-20T20:26:58.291Z,64.85
2022-09-20T20:29:26.683Z,65.35
2022-09-20T20:31:55.122Z,65.33
2022-09-20T20:34:26.642Z,66.10
2022-09-20T20:37:00.978Z,65.31
2022-09-20T20:39:31.719Z,65.78
2022-09-20T20:42:02.434Z,65.35
2022-09-20T20:44:31.860Z,66.96
2022-09-20T20:47:00.244Z,66.01
2022-09-20T20:49:30.072Z,66.00
2022-09-20T20:51:59.720Z,66.44
2022-09-20T20:54:28.065Z,66.88
2022-09-20T20:56:56.410Z,66.94
2022-09-20T20:59:24.803Z,66.60
2022-09-20T21:01:53.261Z,66.50
2022-09-20T21:04:21.800Z,67.46
2022-09-20T21:06:51.670Z,67.44
2022-09-20T21:09:20.038Z,67.50
2022-09-20T21:11:48.614Z,67.81
2022-09-20T21:14:17.190Z,67.86
2022-09-20T21:16:45.676Z,68.94
2022-09-20T21:19:16.602Z,68.37
2022-09-20T21:21:47.377Z,68.33
2022-09-20T21:24:18.117Z,68.32
2022-09-20T21:26:47.677Z,68.40
2022-09-20T21:29:17.581Z,68.33
2022-09-20T21:31:47.443Z,68.98
2022-09-20T21:34:16.994Z,68.46
2022-09-20T21:36:45.779Z,68.05
2022-09-20T21:39:14.581Z,68.59
2022-09-20T21:41:44.788Z,67.75
2022-09-20T21:44:15.087Z,67.63
2022-09-20T21:46:43.551Z,68.25
2022-09-20T21:49:14.342Z,67.87
2022-09-20T21:51:44.137Z,68.21
2022-09-20T21:54:12.591Z,68.56
2022-09-20T21:56:41.837Z,69.11
2022-09-20T21:59:11.692Z,68.87
2022-09-20T22:01:41.331Z,69.30
2022-09-20T22:04:11.641Z,69.25
2022-09-20T22:06:41.770Z,69.58
2022-09-20T22:09:12.436Z,69.49
2022-09-20T22:11:42.331Z,69.53
2022-09-20T22:14:14.213Z,70.66
2022-09-20T22:16:44.066Z,70.75
2022-09-20T22:19:14.931Z,69.96
2022-09-20T22:21:44.784Z,70.45
2022-09-20T22:24:14.863Z,70.71
2022-09-20T22:26:44.990Z,70.97
2022-09-20T22:29:15.038Z,70.83
2022-09-20T22:31:46.228Z,70.89
2022-09-20T22:34:16.935Z,71.10
2022-09-20T22:36:45.847Z,71.06
2022-09-20T22:39:14.805Z,70.76
2022-09-20T22:41:44.603Z,70.67
2022-09-20T22:44:14.396Z,70.72
2022-09-20T22:46:42.939Z,70.52
2022-09-20T22:49:11.250Z,70.26
2022-09-20T22:51:40.400Z,70.73
2022-09-20T22:54:10.759Z,70.57
2022-09-20T22:56:41.426Z,70.76
2022-09-20T22:59:11.721Z,70.28
2022-09-20T23:01:43.525Z,70.19
2022-09-20T23:04:13.674Z,70.44
2022-09-20T23:06:43.953Z,70.32
2022-09-20T23:09:14.076Z,70.45
2022-09-20T23:11:43.422Z,70.07
2022-09-20T23:14:13.495Z,69.51
2022-09-20T23:16:43.773Z,68.90
2022-09-20T23:19:13.107Z,68.66
2022-09-20T23:21:43.124Z,68.80
2022-09-20T23:24:13.177Z,68.44
2022-09-20T23:26:42.983Z,68.47
2022-09-20T23:29:12.862Z,68.64
2022-09-20T23:31:46.154Z,68.19
2022-09-20T23:34:16.236Z,68.47
2022-09-20T23:36:45.427Z,68.52
2022-09-20T23:39:14.446Z,68.09
2022-09-20T23:41:46.941Z,68.23
2022-09-20T23:44:18.480Z,68.70
2022-09-20T23:46:48.219Z,69.36
2022-09-20T23:49:16.633Z,69.19
2022-09-20T23:51:45.115Z,69.73
2022-09-20T23:54:13.448Z,70.57
2022-09-20T23:56:42.923Z,71.29
2022-09-20T23:59:11.312Z,71.51
